sensor_id;sensor_type;location;lat;lon;timestamp;P1;durP1;ratioP1;P2;durP2;ratioP2
21010;SDS011;10663;42.714;23.274;2022-09-21T00:00:38;5.13;;;3.92;;
21010;SDS011;10663;42.714;23.274;2022-09-21T00:02:09;4.10;;;3.70;;
21010;SDS011;10663;42.714;23.274;2022-09-21T00:03:40;3.92;;;3.50;;
21010;SDS011;10663;42.714;23.274;2022-09-21T00:05:12;4.40;;;4.00;;
21010;SDS011;10663;42.714;23.274;2022-09-21T00:06:43;4.87;;;4.23;;
21010;SDS011;10663;42.714;23.274;2022-09-21T00:08:15;7.32;;;4.80;;
21010;SDS011;10663;42.714;23.274;2022-09-21T00:09:46;5.85;;;3.95;;
21010;SDS011;10663;42.714;23.274;2022-09-21T00:11:18;5.47;;;4.73;;
21010;SDS011;10663;42.714;23.274;2022-09-21T00:12:53;4.82;;;4.30;;
21010;SDS011;10663;42.714;23.274;2022-09-21T00:14:25;4.57;;;4.18;;
21010;SDS011;10663;42.714;23.274;2022-09-21T00:15:56;4.68;;;4.15;;
21010;SDS011;10663;42.714;23.274;2022-09-21T00:17:27;4.57;;;4.13;;
21010;SDS011;10663;42.714;23.274;2022-09-21T00:18:58;4.82;;;4.32;;
21010;SDS011;10663;42.714;23.274;2022-09-21T00:20:29;5.32;;;4.30;;
21010;SDS011;10663;42.714;23.274;2022-09-21T00:22:01;4.78;;;3.97;;
21010;SDS011;10663;42.714;23.274;2022-09-21T00:23:33;5.90;;;4.00;;
21010;SDS011;10663;42.714;23.274;2022-09-21T00:25:05;4.70;;;4.25;;
21010;SDS011;10663;42.714;23.274;2022-09-21T00:26:37;4.85;;;4.22;;
21010;SDS011;10663;42.714;23.274;2022-09-21T00:28:08;5.20;;;3.92;;
21010;SDS011;10663;42.714;23.274;2022-09-21T00:29:39;4.20;;;3.80;;
21010;SDS011;10663;42.714;23.274;2022-09-21T00:31:11;4.30;;;3.90;;
21010;SDS011;10663;42.714;23.274;2022-09-21T00:32:44;4.28;;;3.80;;
21010;SDS011;10663;42.714;23.274;2022-09-21T00:34:15;5.50;;;4.20;;
21010;SDS011;10663;42.714;23.274;2022-09-21T00:35:45;4.50;;;3.95;;
21010;SDS011;10663;42.714;23.274;2022-09-21T00:37:17;5.53;;;4.35;;
21010;SDS011;10663;42.714;23.274;2022-09-21T00:38:49;5.22;;;4.32;;
21010;SDS011;10663;42.714;23.274;2022-09-21T00:40:21;6.10;;;4.25;;
21010;SDS011;10663;42.714;23.274;2022-09-21T00:41:52;5.88;;;4.32;;
21010;SDS011;10663;42.714;23.274;2022-09-21T00:43:23;5.15;;;4.18;;
21010;SDS011;10663;42.714;23.274;2022-09-21T00:44:54;4.63;;;4.20;;
21010;SDS011;10663;42.714;23.274;2022-09-21T00:46:26;4.63;;;4.22;;
21010;SDS011;10663;42.714;23.274;2022-09-21T00:47:59;4.85;;;4.05;;
21010;SDS011;10663;42.714;23.274;2022-09-21T00:49:30;4.95;;;4.05;;
21010;SDS011;10663;42.714;23.274;2022-09-21T00:51:04;4.95;;;4.30;;
21010;SDS011;10663;42.714;23.274;2022-09-21T00:52:40;6.88;;;4.25;;
21010;SDS011;10663;42.714;23.274;2022-09-21T00:54:15;5.78;;;4.43;;
21010;SDS011;10663;42.714;23.274;2022-09-21T00:55:57;5.07;;;4.40;;
21010;SDS011;10663;42.714;23.274;2022-09-21T00:57:29;5.13;;;4.30;;
21010;SDS011;10663;42.714;23.274;2022-09-21T00:59:01;5.60;;;4.30;;
21010;SDS011;10663;42.714;23.274;2022-09-21T01:00:33;4.90;;;3.95;;
21010;SDS011;10663;42.714;23.274;2022-09-21T01:02:05;5.03;;;4.53;;
21010;SDS011;10663;42.714;23.274;2022-09-21T01:03:37;5.10;;;4.30;;
21010;SDS011;10663;42.714;23.274;2022-09-21T01:05:09;4.90;;;4.40;;
21010;SDS011;10663;42.714;23.274;2022-09-21T01:06:41;4.57;;;4.18;;
21010;SDS011;10663;42.714;23.274;2022-09-21T01:08:12;5.37;;;4.70;;
21010;SDS011;10663;42.714;23.274;2022-09-21T01:09:49;5.15;;;4.38;;
21010;SDS011;10663;42.714;23.274;2022-09-21T01:13:36;5.50;;;4.57;;
21010;SDS011;10663;42.714;23.274;2022-09-21T01:15:27;5.00;;;4.47;;
21010;SDS011;10663;42.714;23.274;2022-09-21T01:17:11;4.75;;;4.32;;
21010;SDS011;10663;42.714;23.274;2022-09-21T01:18:50;5.60;;;4.45;;
21010;SDS011;10663;42.714;23.274;2022-09-21T01:30:32;4.88;;;4.38;;
21010;SDS011;10663;42.714;23.274;2022-09-21T01:32:07;4.93;;;4.43;;
21010;SDS011;10663;42.714;23.274;2022-09-21T01:33:46;4.95;;;4.45;;
21010;SDS011;10663;42.714;23.274;2022-09-21T01:35:22;5.53;;;4.10;;
21010;SDS011;10663;42.714;23.274;2022-09-21T01:36:59;4.28;;;3.85;;
21010;SDS011;10663;42.714;23.274;2022-09-21T01:38:37;4.97;;;4.13;;
21010;SDS011;10663;42.714;23.274;2022-09-21T01:40:18;5.53;;;4.50;;
21010;SDS011;10663;42.714;23.274;2022-09-21T01:41:52;5.65;;;4.50;;
21010;SDS011;10663;42.714;23.274;2022-09-21T01:43:28;4.63;;;4.18;;
21010;SDS011;10663;42.714;23.274;2022-09-21T01:45:03;4.13;;;3.60;;
21010;SDS011;10663;42.714;23.274;2022-09-21T01:46:37;4.68;;;4.10;;
21010;SDS011;10663;42.714;23.274;2022-09-21T01:48:08;4.88;;;3.80;;
21010;SDS011;10663;42.714;23.274;2022-09-21T01:49:42;4.05;;;3.55;;
21010;SDS011;10663;42.714;23.274;2022-09-21T01:51:16;4.13;;;3.72;;
21010;SDS011;10663;42.714;23.274;2022-09-21T01:52:51;3.97;;;3.67;;
21010;SDS011;10663;42.714;23.274;2022-09-21T01:54:33;3.70;;;3.30;;
21010;SDS011;10663;42.714;23.274;2022-09-21T01:56:21;3.60;;;3.30;;
21010;SDS011;10663;42.714;23.274;2022-09-21T01:58:08;3.92;;;3.60;;
21010;SDS011;10663;42.714;23.274;2022-09-21T01:59:53;4.70;;;3.83;;
21010;SDS011;10663;42.714;23.274;2022-09-21T02:01:27;4.50;;;3.90;;
21010;SDS011;10663;42.714;23.274;2022-09-21T02:03:11;3.95;;;3.55;;
21010;SDS011;10663;42.714;23.274;2022-09-21T02:04:49;5.88;;;3.67;;
21010;SDS011;10663;42.714;23.274;2022-09-21T02:06:20;4.68;;;3.85;;
21010;SDS011;10663;42.714;23.274;2022-09-21T02:07:52;4.07;;;3.67;;
21010;SDS011;10663;42.714;23.274;2022-09-21T02:09:23;4.10;;;3.67;;
21010;SDS011;10663;42.714;23.274;2022-09-21T02:10:55;4.75;;;4.25;;
21010;SDS011;10663;42.714;23.274;2022-09-21T02:12:26;5.38;;;4.03;;
21010;SDS011;10663;42.714;23.274;2022-09-21T02:13:57;4.25;;;3.85;;
21010;SDS011;10663;42.714;23.274;2022-09-21T02:15:31;4.78;;;4.38;;
21010;SDS011;10663;42.714;23.274;2022-09-21T02:20:46;4.65;;;4.25;;
21010;SDS011;10663;42.714;23.274;2022-09-21T02:22:37;5.97;;;4.30;;
21010;SDS011;10663;42.714;23.274;2022-09-21T02:26:25;5.05;;;4.40;;
21010;SDS011;10663;42.714;23.274;2022-09-21T02:28:18;4.82;;;4.32;;
21010;SDS011;10663;42.714;23.274;2022-09-21T02:33:23;5.47;;;4.18;;
21010;SDS011;10663;42.714;23.274;2022-09-21T02:35:12;5.03;;;4.40;;
21010;SDS011;10663;42.714;23.274;2022-09-21T02:37:16;4.72;;;4.25;;
21010;SDS011;10663;42.714;23.274;2022-09-21T02:39:02;5.30;;;4.80;;
21010;SDS011;10663;42.714;23.274;2022-09-21T02:42:27;5.13;;;4.35;;
21010;SDS011;10663;42.714;23.274;2022-09-21T02:44:05;4.85;;;4.40;;
21010;SDS011;10663;42.714;23.274;2022-09-21T02:45:52;5.55;;;4.53;;
21010;SDS011;10663;42.714;23.274;2022-09-21T02:47:32;5.32;;;4.50;;
21010;SDS011;10663;42.714;23.274;2022-09-21T02:49:23;4.97;;;4.45;;
21010;SDS011;10663;42.714;23.274;2022-09-21T02:51:01;5.32;;;4.40;;
21010;SDS011;10663;42.714;23.274;2022-09-21T02:52:37;6.05;;;4.30;;
21010;SDS011;10663;42.714;23.274;2022-09-21T02:54:10;5.47;;;4.32;;
21010;SDS011;10663;42.714;23.274;2022-09-21T02:55:45;5.88;;;4.43;;
21010;SDS011;10663;42.714;23.274;2022-09-21T02:57:19;5.25;;;4.53;;
21010;SDS011;10663;42.714;23.274;2022-09-21T02:58:53;5.90;;;4.20;;
21010;SDS011;10663;42.714;23.274;2022-09-21T03:00:29;6.07;;;4.33;;
21010;SDS011;10663;42.714;23.274;2022-09-21T03:02:00;4.80;;;4.30;;
21010;SDS011;10663;42.714;23.274;2022-09-21T03:03:31;5.07;;;3.63;;
21010;SDS011;10663;42.714;23.274;2022-09-21T03:05:02;6.68;;;4.47;;
21010;SDS011;10663;42.714;23.274;2022-09-21T03:06:33;6.13;;;4.43;;
21010;SDS011;10663;42.714;23.274;2022-09-21T03:08:04;5.80;;;4.07;;
21010;SDS011;10663;42.714;23.274;2022-09-21T03:09:36;5.18;;;4.25;;
21010;SDS011;10663;42.714;23.274;2022-09-21T03:11:07;5.38;;;4.28;;
21010;SDS011;10663;42.714;23.274;2022-09-21T03:12:40;5.30;;;4.55;;
21010;SDS011;10663;42.714;23.274;2022-09-21T03:14:16;4.95;;;4.30;;
21010;SDS011;10663;42.714;23.274;2022-09-21T03:15:48;5.75;;;4.28;;
21010;SDS011;10663;42.714;23.274;2022-09-21T03:17:20;5.22;;;4.40;;
21010;SDS011;10663;42.714;23.274;2022-09-21T03:18:51;6.60;;;4.30;;
21010;SDS011;10663;42.714;23.274;2022-09-21T03:20:22;5.32;;;4.10;;
21010;SDS011;10663;42.714;23.274;2022-09-21T03:21:53;5.88;;;4.35;;
21010;SDS011;10663;42.714;23.274;2022-09-21T03:23:24;5.70;;;4.60;;
21010;SDS011;10663;42.714;23.274;2022-09-21T03:24:56;4.85;;;4.18;;
21010;SDS011;10663;42.714;23.274;2022-09-21T03:26:27;6.38;;;4.47;;
21010;SDS011;10663;42.714;23.274;2022-09-21T03:27:59;5.95;;;4.22;;
21010;SDS011;10663;42.714;23.274;2022-09-21T03:29:30;6.00;;;4.40;;
21010;SDS011;10663;42.714;23.274;2022-09-21T03:31:01;4.88;;;4.30;;
21010;SDS011;10663;42.714;23.274;2022-09-21T03:32:32;6.43;;;4.80;;
21010;SDS011;10663;42.714;23.274;2022-09-21T03:34:03;5.22;;;4.50;;
21010;SDS011;10663;42.714;23.274;2022-09-21T03:35:34;4.82;;;4.22;;
21010;SDS011;10663;42.714;23.274;2022-09-21T03:37:05;6.65;;;4.57;;
21010;SDS011;10663;42.714;23.274;2022-09-21T03:38:37;5.07;;;4.40;;
21010;SDS011;10663;42.714;23.274;2022-09-21T03:40:09;7.13;;;5.65;;
21010;SDS011;10663;42.714;23.274;2022-09-21T03:41:41;5.95;;;5.35;;
21010;SDS011;10663;42.714;23.274;2022-09-21T03:43:13;5.60;;;5.00;;
21010;SDS011;10663;42.714;23.274;2022-09-21T03:44:45;6.45;;;5.85;;
21010;SDS011;10663;42.714;23.274;2022-09-21T03:46:16;6.90;;;5.90;;
21010;SDS011;10663;42.714;23.274;2022-09-21T03:47:46;7.25;;;6.00;;
21010;SDS011;10663;42.714;23.274;2022-09-21T03:49:18;6.60;;;5.80;;
21010;SDS011;10663;42.714;23.274;2022-09-21T03:50:49;9.40;;;6.10;;
21010;SDS011;10663;42.714;23.274;2022-09-21T03:52:19;7.53;;;5.97;;
21010;SDS011;10663;42.714;23.274;2022-09-21T03:53:50;10.05;;;5.78;;
21010;SDS011;10663;42.714;23.274;2022-09-21T03:55:21;7.00;;;6.22;;
21010;SDS011;10663;42.714;23.274;2022-09-21T03:56:52;7.50;;;6.20;;
21010;SDS011;10663;42.714;23.274;2022-09-21T03:58:23;10.60;;;7.97;;
21010;SDS011;10663;42.714;23.274;2022-09-21T03:59:54;6.87;;;5.90;;
21010;SDS011;10663;42.714;23.274;2022-09-21T04:01:25;6.28;;;5.05;;
21010;SDS011;10663;42.714;23.274;2022-09-21T04:02:56;7.53;;;4.90;;
21010;SDS011;10663;42.714;23.274;2022-09-21T04:04:26;7.72;;;4.95;;
21010;SDS011;10663;42.714;23.274;2022-09-21T04:05:57;7.45;;;4.90;;
21010;SDS011;10663;42.714;23.274;2022-09-21T04:07:31;7.93;;;5.00;;
21010;SDS011;10663;42.714;23.274;2022-09-21T04:09:03;7.90;;;5.30;;
21010;SDS011;10663;42.714;23.274;2022-09-21T04:10:35;9.30;;;5.50;;
21010;SDS011;10663;42.714;23.274;2022-09-21T04:12:06;9.00;;;7.25;;
21010;SDS011;10663;42.714;23.274;2022-09-21T04:13:37;6.35;;;4.55;;
21010;SDS011;10663;42.714;23.274;2022-09-21T04:15:11;8.38;;;6.70;;
21010;SDS011;10663;42.714;23.274;2022-09-21T04:16:44;4.68;;;4.28;;
21010;SDS011;10663;42.714;23.274;2022-09-21T04:18:15;9.25;;;6.80;;
21010;SDS011;10663;42.714;23.274;2022-09-21T04:19:46;8.50;;;7.40;;
21010;SDS011;10663;42.714;23.274;2022-09-21T04:21:18;8.75;;;6.93;;
21010;SDS011;10663;42.714;23.274;2022-09-21T04:22:50;15.80;;;10.77;;
21010;SDS011;10663;42.714;23.274;2022-09-21T04:24:22;11.68;;;9.52;;
21010;SDS011;10663;42.714;23.274;2022-09-21T04:25:53;9.13;;;6.15;;
21010;SDS011;10663;42.714;23.274;2022-09-21T04:27:24;5.93;;;5.28;;
21010;SDS011;10663;42.714;23.274;2022-09-21T04:28:55;5.88;;;4.70;;
21010;SDS011;10663;42.714;23.274;2022-09-21T04:30:27;8.90;;;6.05;;
21010;SDS011;10663;42.714;23.274;2022-09-21T04:31:58;5.15;;;4.28;;
21010;SDS011;10663;42.714;23.274;2022-09-21T04:33:30;4.05;;;3.50;;
21010;SDS011;10663;42.714;23.274;2022-09-21T04:35:01;5.25;;;4.10;;
21010;SDS011;10663;42.714;23.274;2022-09-21T04:36:31;5.03;;;4.10;;
21010;SDS011;10663;42.714;23.274;2022-09-21T04:38:02;4.63;;;4.13;;
21010;SDS011;10663;42.714;23.274;2022-09-21T04:39:33;6.80;;;4.57;;
21010;SDS011;10663;42.714;23.274;2022-09-21T04:41:04;4.85;;;3.80;;
21010;SDS011;10663;42.714;23.274;2022-09-21T04:42:36;4.97;;;4.10;;
21010;SDS011;10663;42.714;23.274;2022-09-21T04:44:07;5.50;;;4.20;;
21010;SDS011;10663;42.714;23.274;2022-09-21T04:45:37;4.90;;;3.60;;
21010;SDS011;10663;42.714;23.274;2022-09-21T04:47:09;3.78;;;3.00;;
21010;SDS011;10663;42.714;23.274;2022-09-21T04:48:41;6.65;;;3.58;;
21010;SDS011;10663;42.714;23.274;2022-09-21T04:50:12;5.68;;;3.50;;
21010;SDS011;10663;42.714;23.274;2022-09-21T04:51:43;5.15;;;4.43;;
21010;SDS011;10663;42.714;23.274;2022-09-21T04:53:14;7.20;;;5.50;;
21010;SDS011;10663;42.714;23.274;2022-09-21T04:54:45;7.43;;;4.85;;
21010;SDS011;10663;42.714;23.274;2022-09-21T04:56:16;6.78;;;4.15;;
21010;SDS011;10663;42.714;23.274;2022-09-21T04:57:47;5.20;;;3.97;;
21010;SDS011;10663;42.714;23.274;2022-09-21T04:59:18;5.57;;;3.67;;
21010;SDS011;10663;42.714;23.274;2022-09-21T05:00:50;6.35;;;4.45;;
21010;SDS011;10663;42.714;23.274;2022-09-21T05:02:21;5.32;;;4.75;;
21010;SDS011;10663;42.714;23.274;2022-09-21T05:03:52;5.85;;;4.50;;
21010;SDS011;10663;42.714;23.274;2022-09-21T05:05:23;6.88;;;5.05;;
21010;SDS011;10663;42.714;23.274;2022-09-21T05:06:54;11.27;;;6.80;;
21010;SDS011;10663;42.714;23.274;2022-09-21T05:08:25;11.63;;;7.03;;
21010;SDS011;10663;42.714;23.274;2022-09-21T05:10:15;11.57;;;8.50;;
21010;SDS011;10663;42.714;23.274;2022-09-21T05:11:46;13.25;;;6.72;;
21010;SDS011;10663;42.714;23.274;2022-09-21T05:13:17;16.02;;;10.35;;
21010;SDS011;10663;42.714;23.274;2022-09-21T05:14:47;15.53;;;9.93;;
21010;SDS011;10663;42.714;23.274;2022-09-21T05:16:18;16.63;;;10.73;;
21010;SDS011;10663;42.714;23.274;2022-09-21T05:17:49;19.50;;;11.23;;
21010;SDS011;10663;42.714;23.274;2022-09-21T05:19:20;14.98;;;9.88;;
21010;SDS011;10663;42.714;23.274;2022-09-21T05:20:52;9.38;;;6.85;;
21010;SDS011;10663;42.714;23.274;2022-09-21T05:22:24;11.73;;;7.35;;
21010;SDS011;10663;42.714;23.274;2022-09-21T05:23:57;11.68;;;6.55;;
21010;SDS011;10663;42.714;23.274;2022-09-21T05:25:28;12.13;;;7.07;;
21010;SDS011;10663;42.714;23.274;2022-09-21T05:26:58;7.70;;;4.80;;
21010;SDS011;10663;42.714;23.274;2022-09-21T05:28:30;8.63;;;5.82;;
21010;SDS011;10663;42.714;23.274;2022-09-21T05:30:01;8.38;;;6.07;;
21010;SDS011;10663;42.714;23.274;2022-09-21T05:31:44;9.37;;;6.13;;
21010;SDS011;10663;42.714;23.274;2022-09-21T05:33:18;7.60;;;5.95;;
21010;SDS011;10663;42.714;23.274;2022-09-21T05:34:53;7.72;;;4.82;;
21010;SDS011;10663;42.714;23.274;2022-09-21T05:36:47;7.80;;;5.10;;
21010;SDS011;10663;42.714;23.274;2022-09-21T05:38:37;11.23;;;5.57;;
21010;SDS011;10663;42.714;23.274;2022-09-21T05:40:09;9.68;;;5.57;;
21010;SDS011;10663;42.714;23.274;2022-09-21T05:41:41;7.10;;;5.25;;
21010;SDS011;10663;42.714;23.274;2022-09-21T05:43:12;8.93;;;5.57;;
21010;SDS011;10663;42.714;23.274;2022-09-21T05:44:43;7.97;;;5.05;;
21010;SDS011;10663;42.714;23.274;2022-09-21T05:48:24;8.18;;;5.30;;
21010;SDS011;10663;42.714;23.274;2022-09-21T05:52:03;9.73;;;5.80;;
21010;SDS011;10663;42.714;23.274;2022-09-21T05:55:57;7.68;;;5.50;;
21010;SDS011;10663;42.714;23.274;2022-09-21T05:57:34;9.38;;;5.40;;
21010;SDS011;10663;42.714;23.274;2022-09-21T06:03:27;10.13;;;5.70;;
21010;SDS011;10663;42.714;23.274;2022-09-21T06:05:00;7.70;;;5.63;;
21010;SDS011;10663;42.714;23.274;2022-09-21T06:06:35;9.65;;;6.05;;
21010;SDS011;10663;42.714;23.274;2022-09-21T06:08:06;8.02;;;6.00;;
21010;SDS011;10663;42.714;23.274;2022-09-21T06:09:37;14.40;;;6.38;;
21010;SDS011;10663;42.714;23.274;2022-09-21T06:11:07;10.90;;;6.07;;
21010;SDS011;10663;42.714;23.274;2022-09-21T06:12:39;10.30;;;6.30;;
21010;SDS011;10663;42.714;23.274;2022-09-21T06:14:10;10.40;;;5.70;;
21010;SDS011;10663;42.714;23.274;2022-09-21T06:15:41;8.00;;;5.40;;
21010;SDS011;10663;42.714;23.274;2022-09-21T06:17:12;7.57;;;5.28;;
21010;SDS011;10663;42.714;23.274;2022-09-21T06:18:43;9.48;;;5.50;;
21010;SDS011;10663;42.714;23.274;2022-09-21T06:20:13;9.65;;;5.53;;
21010;SDS011;10663;42.714;23.274;2022-09-21T06:21:44;9.50;;;6.53;;
21010;SDS011;10663;42.714;23.274;2022-09-21T06:23:15;9.98;;;6.00;;
21010;SDS011;10663;42.714;23.274;2022-09-21T06:24:46;8.90;;;5.70;;
21010;SDS011;10663;42.714;23.274;2022-09-21T06:26:17;10.77;;;6.50;;
21010;SDS011;10663;42.714;23.274;2022-09-21T06:27:48;5.33;;;4.00;;
21010;SDS011;10663;42.714;23.274;2022-09-21T06:29:18;5.57;;;4.38;;
21010;SDS011;10663;42.714;23.274;2022-09-21T06:30:53;6.80;;;4.25;;
21010;SDS011;10663;42.714;23.274;2022-09-21T06:32:25;6.65;;;3.72;;
21010;SDS011;10663;42.714;23.274;2022-09-21T06:33:56;4.10;;;3.50;;
21010;SDS011;10663;42.714;23.274;2022-09-21T06:35:27;4.63;;;3.43;;
21010;SDS011;10663;42.714;23.274;2022-09-21T06:36:59;3.97;;;2.90;;
21010;SDS011;10663;42.714;23.274;2022-09-21T06:38:29;5.23;;;3.33;;
21010;SDS011;10663;42.714;23.274;2022-09-21T06:40:01;4.45;;;3.33;;
21010;SDS011;10663;42.714;23.274;2022-09-21T06:41:32;3.83;;;3.15;;
21010;SDS011;10663;42.714;23.274;2022-09-21T06:43:03;5.63;;;3.13;;
21010;SDS011;10663;42.714;23.274;2022-09-21T06:44:36;3.10;;;2.80;;
21010;SDS011;10663;42.714;23.274;2022-09-21T06:46:06;4.77;;;3.40;;
21010;SDS011;10663;42.714;23.274;2022-09-21T06:47:37;4.47;;;3.13;;
21010;SDS011;10663;42.714;23.274;2022-09-21T06:49:08;4.28;;;2.95;;
21010;SDS011;10663;42.714;23.274;2022-09-21T06:50:39;3.75;;;3.20;;
21010;SDS011;10663;42.714;23.274;2022-09-21T06:52:10;5.75;;;3.88;;
21010;SDS011;10663;42.714;23.274;2022-09-21T06:53:41;3.97;;;3.20;;
21010;SDS011;10663;42.714;23.274;2022-09-21T06:55:12;3.77;;;3.23;;
21010;SDS011;10663;42.714;23.274;2022-09-21T06:56:43;3.58;;;3.20;;
21010;SDS011;10663;42.714;23.274;2022-09-21T06:58:14;2.95;;;2.65;;
21010;SDS011;10663;42.714;23.274;2022-09-21T06:59:45;4.28;;;3.50;;
21010;SDS011;10663;42.714;23.274;2022-09-21T07:01:16;3.47;;;3.10;;
21010;SDS011;10663;42.714;23.274;2022-09-21T07:02:47;4.13;;;3.00;;
21010;SDS011;10663;42.714;23.274;2022-09-21T07:04:18;3.80;;;2.80;;
21010;SDS011;10663;42.714;23.274;2022-09-21T07:05:50;5.82;;;3.15;;
21010;SDS011;10663;42.714;23.274;2022-09-21T07:07:21;4.15;;;3.17;;
21010;SDS011;10663;42.714;23.274;2022-09-21T07:08:52;3.65;;;2.65;;
21010;SDS011;10663;42.714;23.274;2022-09-21T07:10:23;3.28;;;2.53;;
21010;SDS011;10663;42.714;23.274;2022-09-21T07:11:54;4.25;;;2.85;;
21010;SDS011;10663;42.714;23.274;2022-09-21T07:13:27;5.10;;;3.00;;
21010;SDS011;10663;42.714;23.274;2022-09-21T07:14:58;3.67;;;3.00;;
21010;SDS011;10663;42.714;23.274;2022-09-21T07:16:29;3.78;;;3.13;;
21010;SDS011;10663;42.714;23.274;2022-09-21T07:18:00;3.75;;;2.95;;
21010;SDS011;10663;42.714;23.274;2022-09-21T07:19:40;2.70;;;2.50;;
21010;SDS011;10663;42.714;23.274;2022-09-21T07:21:11;3.50;;;2.95;;
21010;SDS011;10663;42.714;23.274;2022-09-21T07:22:42;4.45;;;2.90;;
21010;SDS011;10663;42.714;23.274;2022-09-21T07:24:13;4.82;;;3.15;;
21010;SDS011;10663;42.714;23.274;2022-09-21T07:25:45;5.07;;;2.80;;
21010;SDS011;10663;42.714;23.274;2022-09-21T07:27:21;3.50;;;2.87;;
21010;SDS011;10663;42.714;23.274;2022-09-21T07:28:52;4.20;;;3.00;;
21010;SDS011;10663;42.714;23.274;2022-09-21T07:30:23;5.65;;;3.17;;
21010;SDS011;10663;42.714;23.274;2022-09-21T07:31:54;4.85;;;3.30;;
21010;SDS011;10663;42.714;23.274;2022-09-21T07:33:25;4.03;;;3.25;;
21010;SDS011;10663;42.714;23.274;2022-09-21T07:34:56;4.00;;;3.22;;
21010;SDS011;10663;42.714;23.274;2022-09-21T07:36:27;4.68;;;2.80;;
21010;SDS011;10663;42.714;23.274;2022-09-21T07:37:58;3.70;;;2.60;;
21010;SDS011;10663;42.714;23.274;2022-09-21T07:39:31;4.95;;;2.80;;
21010;SDS011;10663;42.714;23.274;2022-09-21T07:41:02;4.03;;;2.58;;
21010;SDS011;10663;42.714;23.274;2022-09-21T07:42:33;4.32;;;2.88;;
21010;SDS011;10663;42.714;23.274;2022-09-21T07:44:04;6.53;;;2.63;;
21010;SDS011;10663;42.714;23.274;2022-09-21T07:45:34;5.72;;;3.00;;
21010;SDS011;10663;42.714;23.274;2022-09-21T07:47:05;5.67;;;2.90;;
21010;SDS011;10663;42.714;23.274;2022-09-21T07:48:37;4.00;;;2.50;;
21010;SDS011;10663;42.714;23.274;2022-09-21T07:50:08;3.45;;;2.78;;
21010;SDS011;10663;42.714;23.274;2022-09-21T07:51:39;3.65;;;2.70;;
21010;SDS011;10663;42.714;23.274;2022-09-21T07:53:10;3.08;;;2.70;;
21010;SDS011;10663;42.714;23.274;2022-09-21T07:54:40;2.65;;;2.40;;
21010;SDS011;10663;42.714;23.274;2022-09-21T07:56:15;4.67;;;2.70;;
21010;SDS011;10663;42.714;23.274;2022-09-21T07:57:48;4.25;;;2.60;;
21010;SDS011;10663;42.714;23.274;2022-09-21T07:59:38;4.20;;;2.53;;
21010;SDS011;10663;42.714;23.274;2022-09-21T08:01:08;3.83;;;2.30;;
21010;SDS011;10663;42.714;23.274;2022-09-21T08:02:39;3.33;;;2.33;;
21010;SDS011;10663;42.714;23.274;2022-09-21T08:04:10;2.93;;;2.27;;
21010;SDS011;10663;42.714;23.274;2022-09-21T08:05:41;3.87;;;2.60;;
21010;SDS011;10663;42.714;23.274;2022-09-21T08:07:12;4.43;;;2.40;;
21010;SDS011;10663;42.714;23.274;2022-09-21T08:08:43;2.63;;;2.20;;
21010;SDS011;10663;42.714;23.274;2022-09-21T08:10:17;3.22;;;2.30;;
21010;SDS011;10663;42.714;23.274;2022-09-21T08:11:48;2.88;;;2.45;;
21010;SDS011;10663;42.714;23.274;2022-09-21T08:13:21;3.88;;;2.33;;
21010;SDS011;10663;42.714;23.274;2022-09-21T08:14:51;3.22;;;2.40;;
21010;SDS011;10663;42.714;23.274;2022-09-21T08:16:22;2.60;;;2.40;;
21010;SDS011;10663;42.714;23.274;2022-09-21T08:17:54;2.67;;;2.13;;
21010;SDS011;10663;42.714;23.274;2022-09-21T08:19:27;2.47;;;2.10;;
21010;SDS011;10663;42.714;23.274;2022-09-21T08:20:58;2.40;;;2.10;;
21010;SDS011;10663;42.714;23.274;2022-09-21T08:24:58;4.00;;;2.20;;
21010;SDS011;10663;42.714;23.274;2022-09-21T08:26:29;4.20;;;2.20;;
21010;SDS011;10663;42.714;23.274;2022-09-21T08:28:00;2.67;;;2.13;;
21010;SDS011;10663;42.714;23.274;2022-09-21T08:29:31;2.88;;;1.85;;
21010;SDS011;10663;42.714;23.274;2022-09-21T08:31:02;2.25;;;2.00;;
21010;SDS011;10663;42.714;23.274;2022-09-21T08:32:35;2.17;;;1.98;;
21010;SDS011;10663;42.714;23.274;2022-09-21T08:34:06;3.95;;;2.10;;
21010;SDS011;10663;42.714;23.274;2022-09-21T08:35:36;3.50;;;2.20;;
21010;SDS011;10663;42.714;23.274;2022-09-21T08:37:07;2.70;;;1.73;;
21010;SDS011;10663;42.714;23.274;2022-09-21T08:38:38;3.07;;;2.00;;
21010;SDS011;10663;42.714;23.274;2022-09-21T08:40:09;2.30;;;2.10;;
21010;SDS011;10663;42.714;23.274;2022-09-21T08:41:53;3.60;;;1.98;;
21010;SDS011;10663;42.714;23.274;2022-09-21T08:43:47;2.15;;;1.90;;
21010;SDS011;10663;42.714;23.274;2022-09-21T08:45:23;2.20;;;1.90;;
21010;SDS011;10663;42.714;23.274;2022-09-21T08:47:07;2.20;;;2.00;;
21010;SDS011;10663;42.714;23.274;2022-09-21T08:48:57;2.83;;;1.80;;
21010;SDS011;10663;42.714;23.274;2022-09-21T08:50:34;2.17;;;1.60;;
21010;SDS011;10663;42.714;23.274;2022-09-21T08:52:12;1.90;;;1.70;;
21010;SDS011;10663;42.714;23.274;2022-09-21T08:53:45;2.13;;;1.80;;
21010;SDS011;10663;42.714;23.274;2022-09-21T08:55:20;1.63;;;1.52;;
21010;SDS011;10663;42.714;23.274;2022-09-21T08:56:52;2.70;;;1.90;;
21010;SDS011;10663;42.714;23.274;2022-09-21T08:58:24;2.30;;;1.80;;
21010;SDS011;10663;42.714;23.274;2022-09-21T08:59:57;2.00;;;1.73;;
21010;SDS011;10663;42.714;23.274;2022-09-21T09:03:32;2.78;;;1.70;;
21010;SDS011;10663;42.714;23.274;2022-09-21T09:07:15;1.60;;;1.50;;
21010;SDS011;10663;42.714;23.274;2022-09-21T09:10:43;2.22;;;1.77;;
21010;SDS011;10663;42.714;23.274;2022-09-21T09:14:29;3.08;;;1.95;;
21010;SDS011;10663;42.714;23.274;2022-09-21T09:21:50;3.03;;;1.70;;
21010;SDS011;10663;42.714;23.274;2022-09-21T09:23:22;2.40;;;1.80;;
21010;SDS011;10663;42.714;23.274;2022-09-21T09:25:22;2.97;;;1.90;;
21010;SDS011;10663;42.714;23.274;2022-09-21T09:28:27;2.93;;;1.80;;
21010;SDS011;10663;42.714;23.274;2022-09-21T09:31:53;2.00;;;1.80;;
21010;SDS011;10663;42.714;23.274;2022-09-21T09:33:29;2.40;;;1.70;;
21010;SDS011;10663;42.714;23.274;2022-09-21T09:35:29;1.77;;;1.67;;
21010;SDS011;10663;42.714;23.274;2022-09-21T09:37:12;3.05;;;1.70;;
21010;SDS011;10663;42.714;23.274;2022-09-21T09:39:04;2.38;;;1.63;;
21010;SDS011;10663;42.714;23.274;2022-09-21T09:51:49;2.05;;;1.80;;
21010;SDS011;10663;42.714;23.274;2022-09-21T09:53:24;1.95;;;1.75;;
21010;SDS011;10663;42.714;23.274;2022-09-21T09:54:57;2.13;;;1.60;;
21010;SDS011;10663;42.714;23.274;2022-09-21T09:56:40;2.28;;;1.95;;
21010;SDS011;10663;42.714;23.274;2022-09-21T09:58:17;2.00;;;1.75;;
21010;SDS011;10663;42.714;23.274;2022-09-21T09:59:54;1.55;;;1.45;;
21010;SDS011;10663;42.714;23.274;2022-09-21T10:01:39;1.70;;;1.60;;
21010;SDS011;10663;42.714;23.274;2022-09-21T10:03:16;2.10;;;1.63;;
21010;SDS011;10663;42.714;23.274;2022-09-21T10:04:59;2.22;;;1.50;;
21010;SDS011;10663;42.714;23.274;2022-09-21T10:06:38;2.63;;;1.83;;
21010;SDS011;10663;42.714;23.274;2022-09-21T10:08:29;2.55;;;1.80;;
21010;SDS011;10663;42.714;23.274;2022-09-21T10:10:31;1.60;;;1.50;;
21010;SDS011;10663;42.714;23.274;2022-09-21T10:12:23;2.35;;;1.40;;
21010;SDS011;10663;42.714;23.274;2022-09-21T10:13:55;2.00;;;1.30;;
21010;SDS011;10663;42.714;23.274;2022-09-21T10:15:42;1.85;;;1.40;;
21010;SDS011;10663;42.714;23.274;2022-09-21T10:17:22;1.40;;;1.30;;
21010;SDS011;10663;42.714;23.274;2022-09-21T10:18:58;1.90;;;1.20;;
21010;SDS011;10663;42.714;23.274;2022-09-21T10:20:32;1.75;;;1.20;;
21010;SDS011;10663;42.714;23.274;2022-09-21T10:22:03;1.30;;;1.20;;